createdAt,value
2018-07-03T00:01:03.897Z,2.27
2018-07-03T00:03:31.830Z,2.67
2018-07-03T00:05:59.893Z,2.13
2018-07-03T00:08:27.849Z,2.53
2018-07-03T00:10:55.861Z,1.97
2018-07-03T00:13:23.972Z,2.20
2018-07-03T00:15:51.962Z,2.90
2018-07-03T00:18:20.184Z,3.40
2018-07-03T00:20:48.297Z,3.20
2018-07-03T00:23:16.684Z,2.50
2018-07-03T00:25:44.665Z,2.70
2018-07-03T00:28:12.719Z,2.63
2018-07-03T00:30:40.659Z,2.90
2018-07-03T00:33:08.595Z,2.23
2018-07-03T00:35:36.713Z,1.93
2018-07-03T00:38:04.925Z,2.23
2018-07-03T00:40:32.884Z,2.00
2018-07-03T00:43:00.983Z,2.60
2018-07-03T00:45:28.970Z,2.60
2018-07-03T00:47:56.936Z,2.93
2018-07-03T00:50:24.920Z,2.73
2018-07-03T00:52:52.937Z,2.63
2018-07-03T00:55:20.992Z,2.73
2018-07-03T00:57:49.310Z,2.60
2018-07-03T01:00:22.849Z,2.70
2018-07-03T01:02:50.855Z,2.43
2018-07-03T01:05:18.881Z,2.63
2018-07-03T01:07:46.918Z,2.60
2018-07-03T01:10:14.979Z,2.00
2018-07-03T01:12:42.956Z,1.90
2018-07-03T01:15:10.929Z,1.90
2018-07-03T01:17:38.857Z,2.07
2018-07-03T01:20:06.866Z,1.93
2018-07-03T01:22:35.057Z,2.10
2018-07-03T01:25:03.132Z,2.53
2018-07-03T01:27:31.089Z,2.20
2018-07-03T01:29:59.041Z,2.37
2018-07-03T01:32:27.057Z,2.67
2018-07-03T01:34:55.013Z,2.73
2018-07-03T01:37:22.947Z,2.60
2018-07-03T01:39:50.981Z,1.80
2018-07-03T01:42:19.039Z,2.00
2018-07-03T01:44:47.240Z,2.17
2018-07-03T01:47:15.470Z,2.13
2018-07-03T01:49:43.427Z,2.47
2018-07-03T01:52:11.438Z,2.23
2018-07-03T01:54:39.407Z,2.40
2018-07-03T01:57:07.417Z,1.93
2018-07-03T01:59:35.452Z,2.37
2018-07-03T02:02:03.694Z,3.40
2018-07-03T02:04:31.745Z,2.30
2018-07-03T02:06:59.702Z,2.57
2018-07-03T02:09:27.964Z,3.40
2018-07-03T02:11:55.953Z,2.13
2018-07-03T02:14:23.945Z,1.67
2018-07-03T02:16:51.925Z,2.40
2018-07-03T02:19:19.918Z,2.60
2018-07-03T02:21:47.911Z,2.13
2018-07-03T02:24:16.018Z,1.93
2018-07-03T02:26:43.979Z,2.23
2018-07-03T02:29:11.945Z,2.67
2018-07-03T02:31:39.957Z,2.43
2018-07-03T02:34:07.999Z,2.30
2018-07-03T02:36:35.958Z,2.20
2018-07-03T02:39:05.917Z,2.00
2018-07-03T02:41:33.945Z,1.90
2018-07-03T02:44:01.901Z,2.47
2018-07-03T02:46:30.804Z,2.07
2018-07-03T02:48:58.760Z,2.20
2018-07-03T02:51:26.721Z,2.37
2018-07-03T02:53:55.940Z,3.40
2018-07-03T02:56:23.905Z,2.50
2018-07-03T02:58:51.957Z,2.17
2018-07-03T03:01:20.010Z,3.40
2018-07-03T03:03:48.085Z,2.80
2018-07-03T03:06:16.309Z,2.37
2018-07-03T03:08:44.364Z,2.70
2018-07-03T03:11:12.358Z,2.80
2018-07-03T03:13:40.316Z,2.63
2018-07-03T03:16:08.337Z,2.50
2018-07-03T03:18:36.333Z,2.50
2018-07-03T03:21:04.491Z,3.37
2018-07-03T03:23:32.502Z,3.53
2018-07-03T03:26:00.553Z,3.57
2018-07-03T03:28:28.522Z,3.03
2018-07-03T03:30:56.509Z,4.03
2018-07-03T03:33:24.456Z,3.33
2018-07-03T03:35:52.802Z,2.50
2018-07-03T03:38:20.769Z,3.53
2018-07-03T03:40:48.875Z,2.57
2018-07-03T03:43:17.310Z,3.13
2018-07-03T03:45:45.371Z,2.70
2018-07-03T03:48:13.327Z,2.03
2018-07-03T03:50:41.369Z,5.30
2018-07-03T03:53:09.357Z,2.70
2018-07-03T03:55:37.353Z,3.00
2018-07-03T03:58:05.768Z,2.67
2018-07-03T04:00:33.847Z,2.70
2018-07-03T04:03:01.847Z,3.10
2018-07-03T04:05:29.837Z,2.63
2018-07-03T04:07:57.917Z,3.23
2018-07-03T04:10:25.849Z,3.20
2018-07-03T04:12:53.865Z,14.60
2018-07-03T04:15:21.874Z,4.33
2018-07-03T04:17:49.929Z,3.30
2018-07-03T04:20:17.939Z,2.63
2018-07-03T04:22:46.228Z,1.80
2018-07-03T04:25:14.273Z,2.70
2018-07-03T04:27:42.218Z,3.20
2018-07-03T04:30:10.298Z,2.43
2018-07-03T04:32:38.258Z,2.90
2018-07-03T04:35:06.416Z,3.00
2018-07-03T04:37:34.483Z,3.27
2018-07-03T04:40:02.452Z,3.23
2018-07-03T04:42:30.543Z,2.70
2018-07-03T04:44:59.847Z,3.77
2018-07-03T04:47:28.161Z,3.80
2018-07-03T04:49:56.175Z,3.80
2018-07-03T04:52:24.171Z,3.80
2018-07-03T04:54:52.313Z,3.87
2018-07-03T04:57:20.571Z,4.57
2018-07-03T04:59:49.360Z,3.73
2018-07-03T05:02:17.635Z,3.90
2018-07-03T05:04:46.063Z,3.50
2018-07-03T05:07:14.287Z,4.00
2018-07-03T05:09:42.450Z,3.80
2018-07-03T05:12:10.530Z,3.47
2018-07-03T05:14:38.928Z,4.60
2018-07-03T05:17:07.276Z,3.97
2018-07-03T05:19:35.377Z,4.37
2018-07-03T05:22:04.097Z,4.20
2018-07-03T05:24:32.555Z,4.67
2018-07-03T05:27:00.569Z,3.60
2018-07-03T05:29:28.656Z,4.30
2018-07-03T05:31:56.811Z,4.83
2018-07-03T05:34:24.869Z,3.97
2018-07-03T05:37:02.715Z,5.03
2018-07-03T05:39:30.772Z,4.50
2018-07-03T05:41:59.414Z,4.00
2018-07-03T05:44:27.424Z,4.23
2018-07-03T05:46:55.558Z,3.60
2018-07-03T05:49:24.094Z,5.20
2018-07-03T05:51:52.296Z,4.30
2018-07-03T05:54:20.516Z,4.10
2018-07-03T05:56:48.761Z,4.00
2018-07-03T05:59:16.994Z,4.43
2018-07-03T06:01:45.793Z,3.50
2018-07-03T06:04:13.929Z,3.93
2018-07-03T06:06:42.176Z,3.20
2018-07-03T06:09:10.904Z,3.63
2018-07-03T06:11:38.912Z,2.83
2018-07-03T06:14:06.996Z,3.40
2018-07-03T06:16:35.527Z,3.33
2018-07-03T06:19:03.926Z,3.53
2018-07-03T06:21:32.018Z,3.00
2018-07-03T06:24:00.157Z,7.07
2018-07-03T06:26:28.501Z,2.40
2018-07-03T06:28:56.501Z,3.43
2018-07-03T06:31:24.971Z,3.30
2018-07-03T06:33:53.217Z,2.00
2018-07-03T06:36:21.373Z,3.37
2018-07-03T06:38:49.724Z,3.20
2018-07-03T06:41:17.974Z,2.93
2018-07-03T06:43:46.361Z,2.37
2018-07-03T06:46:17.052Z,2.77
2018-07-03T06:48:45.612Z,2.50
2018-07-03T06:51:13.985Z,3.13
2018-07-03T06:53:42.385Z,3.33
2018-07-03T06:56:10.498Z,3.33
2018-07-03T06:58:39.226Z,2.93
2018-07-03T07:01:08.234Z,2.70
2018-07-03T07:03:36.347Z,3.00
2018-07-03T07:06:05.069Z,2.00
2018-07-03T07:08:33.125Z,2.17
2018-07-03T07:11:01.455Z,2.30
2018-07-03T07:13:29.969Z,2.10
2018-07-03T07:15:58.101Z,1.70
2018-07-03T07:18:27.085Z,1.30
2018-07-03T07:20:56.565Z,2.73
2018-07-03T07:23:24.912Z,2.17
2018-07-03T07:25:53.219Z,2.00
2018-07-03T07:28:21.404Z,1.50
2018-07-03T07:30:49.704Z,2.00
2018-07-03T07:33:18.664Z,1.93
2018-07-03T07:35:47.038Z,1.50
2018-07-03T07:38:15.137Z,1.97
2018-07-03T07:40:44.765Z,1.33
2018-07-03T07:43:14.160Z,1.53
2018-07-03T07:45:42.481Z,2.13
2018-07-03T07:48:10.841Z,1.87
2018-07-03T07:50:38.978Z,1.83
2018-07-03T07:53:07.772Z,2.00
2018-07-03T07:55:36.827Z,1.40
2018-07-03T07:58:05.118Z,0.90
2018-07-03T08:00:33.129Z,1.30
2018-07-03T08:03:01.897Z,2.27
2018-07-03T08:05:30.192Z,1.77
2018-07-03T08:07:59.330Z,1.93
2018-07-03T08:10:27.400Z,3.03
2018-07-03T08:15:28.016Z,1.13
2018-07-03T08:17:56.632Z,1.67
2018-07-03T08:20:24.713Z,1.80
2018-07-03T08:22:53.753Z,1.47
2018-07-03T08:25:26.502Z,1.60
2018-07-03T08:27:54.633Z,1.50
2018-07-03T08:30:22.819Z,1.60
2018-07-03T08:32:51.138Z,1.17
2018-07-03T08:35:19.642Z,1.70
2018-07-03T08:37:49.811Z,1.40
2018-07-03T08:40:18.697Z,1.27
2018-07-03T08:42:48.231Z,1.80
2018-07-03T08:45:16.581Z,1.67
2018-07-03T08:47:44.853Z,1.57
2018-07-03T08:50:12.941Z,1.57
2018-07-03T08:52:41.271Z,1.10
2018-07-03T08:55:09.575Z,1.30
2018-07-03T08:57:38.010Z,1.20
2018-07-03T09:00:07.282Z,1.47
2018-07-03T09:02:35.547Z,1.13
2018-07-03T09:05:03.838Z,1.33
2018-07-03T09:07:32.429Z,1.17
2018-07-03T09:10:01.652Z,1.57
2018-07-03T09:12:29.741Z,1.17
2018-07-03T09:14:57.736Z,1.50
2018-07-03T09:17:30.714Z,1.80
2018-07-03T09:19:59.858Z,1.50
2018-07-03T09:22:28.139Z,1.10
2018-07-03T09:24:56.155Z,2.70
2018-07-03T09:27:24.497Z,1.60
2018-07-03T09:29:52.977Z,1.00
2018-07-03T09:32:21.087Z,1.67
2018-07-03T09:34:49.346Z,1.27
2018-07-03T09:37:17.589Z,1.30
2018-07-03T09:39:46.326Z,1.47
2018-07-03T09:42:15.700Z,1.17
2018-07-03T09:44:43.924Z,1.00
2018-07-03T09:47:12.073Z,1.03
2018-07-03T09:49:40.860Z,1.00
2018-07-03T09:52:17.230Z,1.40
2018-07-03T09:54:46.103Z,1.17
2018-07-03T09:57:15.068Z,1.20
2018-07-03T09:59:43.862Z,1.40
2018-07-03T10:02:12.244Z,1.70
2018-07-03T10:04:40.589Z,2.10
2018-07-03T10:07:08.889Z,2.17
2018-07-03T10:09:37.797Z,2.20
2018-07-03T10:12:05.898Z,1.10
2018-07-03T10:14:33.898Z,1.70
2018-07-03T10:17:02.215Z,1.20
2018-07-03T10:19:30.767Z,1.20
2018-07-03T10:22:00.120Z,1.90
2018-07-03T10:24:28.222Z,1.63
2018-07-03T10:26:56.927Z,0.93
2018-07-03T10:29:25.356Z,1.40
2018-07-03T10:31:53.541Z,1.20
2018-07-03T10:34:21.842Z,2.00
2018-07-03T10:36:50.191Z,1.60
2018-07-03T10:39:19.338Z,1.00
2018-07-03T10:41:48.154Z,2.00
2018-07-03T10:44:20.896Z,1.53
2018-07-03T10:46:49.330Z,1.37
2018-07-03T10:49:17.897Z,1.50
2018-07-03T10:51:51.419Z,1.80
2018-07-03T10:54:19.904Z,1.70
2018-07-03T10:56:49.626Z,1.57
2018-07-03T10:59:18.180Z,1.13
2018-07-03T11:04:26.819Z,2.37
2018-07-03T11:09:36.479Z,1.57
2018-07-03T11:17:28.392Z,1.10
2018-07-03T11:19:57.597Z,1.50
2018-07-03T11:25:16.467Z,1.30
2018-07-03T11:27:45.264Z,1.40
2018-07-03T11:30:17.756Z,1.50
2018-07-03T11:35:23.707Z,2.20
2018-07-03T11:37:51.915Z,1.77
2018-07-03T11:40:20.680Z,1.50
2018-07-03T11:42:49.338Z,3.37
2018-07-03T11:45:20.595Z,1.20
2018-07-03T11:47:49.130Z,2.33
2018-07-03T11:50:18.171Z,1.90
2018-07-03T11:52:46.705Z,1.90
2018-07-03T11:55:17.747Z,1.80
2018-07-03T11:57:46.328Z,2.47
2018-07-03T12:00:14.777Z,1.83
2018-07-03T12:02:43.003Z,1.23
2018-07-03T12:05:24.175Z,2.20
2018-07-03T12:10:33.622Z,2.30
2018-07-03T12:15:44.989Z,1.50
2018-07-03T12:20:52.761Z,2.00
2018-07-03T12:23:21.277Z,1.47
2018-07-03T12:25:55.362Z,1.50
2018-07-03T12:31:04.888Z,1.60
2018-07-03T12:33:33.005Z,2.03
2018-07-03T12:36:03.679Z,1.93
2018-07-03T12:38:31.732Z,1.97
2018-07-03T12:40:59.881Z,2.47
2018-07-03T12:43:28.072Z,5.90
2018-07-03T12:45:56.353Z,1.20
2018-07-03T12:48:25.287Z,2.97
2018-07-03T12:50:53.434Z,1.50
2018-07-03T12:53:26.239Z,1.63
2018-07-03T12:55:57.721Z,1.20
2018-07-03T12:58:28.043Z,1.70
2018-07-03T13:00:56.547Z,1.57
2018-07-03T13:03:27.578Z,1.50
2018-07-03T13:05:58.608Z,1.57
2018-07-03T13:11:16.696Z,2.00
2018-07-03T13:13:45.948Z,1.80
2018-07-03T13:18:56.129Z,3.73
2018-07-03T13:21:25.256Z,4.13
2018-07-03T13:23:53.769Z,1.77
2018-07-03T13:28:59.557Z,1.80
2018-07-03T13:31:27.738Z,1.83
2018-07-03T13:33:56.750Z,1.60
2018-07-03T13:36:25.442Z,1.90
2018-07-03T13:38:53.632Z,1.80
2018-07-03T13:41:21.923Z,4.47
2018-07-03T13:43:51.212Z,3.50
2018-07-03T13:46:20.265Z,2.03
2018-07-03T13:48:49.227Z,3.17
2018-07-03T13:51:22.647Z,2.40
2018-07-03T13:53:51.138Z,4.50
2018-07-03T13:56:27.853Z,1.77
2018-07-03T13:58:55.970Z,2.47
2018-07-03T14:01:24.193Z,2.07
2018-07-03T14:06:26.274Z,2.80
2018-07-03T14:08:54.443Z,2.70
2018-07-03T14:14:04.086Z,2.17
2018-07-03T14:16:32.254Z,1.87
2018-07-03T14:19:01.973Z,1.93
2018-07-03T14:21:30.661Z,1.90
2018-07-03T14:26:40.082Z,1.60
2018-07-03T14:31:41.388Z,1.70
2018-07-03T14:36:48.717Z,1.73
2018-07-03T14:42:09.160Z,1.90
2018-07-03T14:44:38.331Z,2.03
2018-07-03T14:50:01.635Z,2.23
2018-07-03T14:52:29.990Z,2.13
2018-07-03T14:55:10.828Z,1.80
2018-07-03T14:57:47.739Z,2.63
2018-07-03T15:03:06.976Z,3.33
2018-07-03T15:08:16.835Z,4.97
2018-07-03T15:10:47.066Z,5.13
2018-07-03T15:15:56.579Z,5.30
2018-07-03T15:18:29.081Z,5.30
2018-07-03T15:23:39.193Z,5.70
2018-07-03T15:26:07.727Z,5.90
2018-07-03T15:28:36.441Z,6.00
2018-07-03T15:39:08.929Z,6.30
2018-07-03T15:41:37.419Z,6.27
2018-07-03T15:44:11.099Z,5.20
2018-07-03T15:46:39.484Z,6.20
2018-07-03T15:54:33.178Z,4.87
2018-07-03T16:02:34.055Z,5.50
2018-07-03T16:05:17.137Z,5.30
2018-07-03T16:07:51.406Z,4.33
2018-07-03T16:12:56.049Z,4.83
2018-07-03T16:15:24.602Z,5.53
2018-07-03T16:17:52.858Z,5.13
2018-07-03T16:20:26.519Z,4.80
2018-07-03T16:22:54.774Z,5.70
2018-07-03T16:25:23.103Z,5.40
2018-07-03T16:27:51.331Z,4.60
2018-07-03T16:30:20.007Z,5.40
2018-07-03T16:32:48.509Z,4.33
2018-07-03T16:35:17.249Z,4.70
2018-07-03T16:40:23.541Z,5.50
2018-07-03T16:42:51.958Z,5.00
2018-07-03T16:45:21.883Z,4.90
2018-07-03T16:47:52.567Z,5.13
2018-07-03T16:50:20.835Z,4.60
2018-07-03T16:52:49.770Z,5.10
2018-07-03T16:55:20.906Z,4.10
2018-07-03T17:00:29.001Z,5.00
2018-07-03T17:02:57.958Z,4.67
2018-07-03T17:05:26.082Z,5.20
2018-07-03T17:07:54.128Z,4.73
2018-07-03T17:10:22.427Z,4.63
2018-07-03T17:12:52.017Z,4.30
2018-07-03T17:15:20.492Z,5.43
2018-07-03T17:17:50.170Z,5.40
2018-07-03T17:20:19.589Z,4.93
2018-07-03T17:22:47.977Z,6.03
2018-07-03T17:25:21.893Z,5.43
2018-07-03T17:27:52.299Z,4.97
2018-07-03T17:30:22.063Z,5.37
2018-07-03T17:32:50.370Z,3.97
2018-07-03T17:37:56.317Z,4.90
2018-07-03T17:40:29.876Z,4.90
2018-07-03T17:43:03.291Z,4.57
2018-07-03T17:45:40.653Z,4.63
2018-07-03T17:48:09.978Z,4.43
2018-07-03T17:50:39.741Z,4.33
2018-07-03T17:53:11.222Z,3.93
2018-07-03T17:55:39.583Z,5.73
2018-07-03T17:58:08.049Z,3.90
2018-07-03T18:00:39.994Z,5.67
2018-07-03T18:03:08.499Z,5.87
2018-07-03T18:05:37.046Z,4.73
2018-07-03T18:08:05.179Z,5.60
2018-07-03T18:10:33.267Z,4.67
2018-07-03T18:13:02.512Z,5.10
2018-07-03T18:15:30.907Z,4.80
2018-07-03T18:17:58.979Z,5.10
2018-07-03T18:20:27.446Z,5.77
2018-07-03T18:22:55.526Z,4.30
2018-07-03T18:25:23.589Z,4.37
2018-07-03T18:27:51.807Z,4.00
2018-07-03T18:30:19.987Z,5.20
2018-07-03T18:32:48.209Z,5.20
2018-07-03T18:35:16.365Z,4.47
2018-07-03T18:37:44.597Z,4.43
2018-07-03T18:40:12.696Z,4.20
2018-07-03T18:42:41.263Z,5.10
2018-07-03T18:45:09.709Z,4.67
2018-07-03T18:47:38.571Z,4.43
2018-07-03T18:50:12.075Z,4.20
2018-07-03T18:52:41.054Z,5.03
2018-07-03T18:55:09.078Z,4.60
2018-07-03T18:57:37.694Z,4.83
2018-07-03T19:00:10.821Z,3.60
2018-07-03T19:02:39.510Z,5.97
2018-07-03T19:05:08.608Z,5.17
2018-07-03T19:10:09.589Z,4.70
2018-07-03T19:12:37.764Z,4.70
2018-07-03T19:15:06.006Z,4.70
2018-07-03T19:17:34.756Z,5.40
2018-07-03T19:20:02.895Z,4.83
2018-07-03T19:22:31.031Z,4.80
2018-07-03T19:25:01.455Z,4.50
2018-07-03T19:27:29.668Z,4.60
2018-07-03T19:29:57.787Z,4.23
2018-07-03T19:32:26.102Z,4.13
2018-07-03T19:34:54.984Z,3.93
2018-07-03T19:37:25.396Z,4.80
2018-07-03T19:39:53.649Z,5.50
2018-07-03T19:42:27.950Z,5.83
2018-07-03T19:44:57.005Z,4.00
2018-07-03T19:47:25.551Z,3.93
2018-07-03T19:49:55.231Z,4.80
2018-07-03T19:52:24.641Z,4.97
2018-07-03T19:54:53.206Z,5.40
2018-07-03T19:57:24.139Z,4.60
2018-07-03T19:59:54.016Z,5.23
2018-07-03T20:02:23.049Z,5.50
2018-07-03T20:04:51.381Z,4.67
2018-07-03T20:07:19.884Z,4.33
2018-07-03T20:09:48.509Z,5.20
2018-07-03T20:12:18.114Z,4.73
2018-07-03T20:14:47.987Z,4.43
2018-07-03T20:17:19.918Z,4.50
2018-07-03T20:19:48.722Z,4.93
2018-07-03T20:22:17.167Z,4.20
2018-07-03T20:24:46.587Z,5.20
2018-07-03T20:27:22.304Z,4.60
2018-07-03T20:29:51.749Z,3.80
2018-07-03T20:32:21.124Z,4.27
2018-07-03T20:34:49.377Z,4.67
2018-07-03T20:37:18.565Z,4.60
2018-07-03T20:39:47.870Z,5.10
2018-07-03T20:42:16.636Z,4.77
2018-07-03T20:44:45.084Z,4.30
2018-07-03T20:47:13.049Z,4.90
2018-07-03T20:49:41.141Z,4.47
2018-07-03T20:52:09.839Z,4.33
2018-07-03T20:54:39.062Z,5.30
2018-07-03T20:57:07.692Z,5.13
2018-07-03T20:59:35.946Z,5.27
2018-07-03T21:02:04.578Z,5.17
2018-07-03T21:04:32.751Z,4.33
2018-07-03T21:07:01.485Z,5.57
2018-07-03T21:09:29.492Z,5.80
2018-07-03T21:11:58.007Z,5.10
2018-07-03T21:14:26.180Z,4.10
2018-07-03T21:16:54.339Z,5.97
2018-07-03T21:19:24.555Z,4.70
2018-07-03T21:21:53.243Z,4.77
2018-07-03T21:24:21.523Z,5.50
2018-07-03T21:26:49.925Z,5.20
2018-07-03T21:29:18.532Z,4.70
2018-07-03T21:31:47.349Z,5.30
2018-07-03T21:34:24.923Z,5.57
2018-07-03T21:36:52.976Z,5.20
2018-07-03T21:39:21.269Z,4.30
2018-07-03T21:41:50.552Z,5.43
2018-07-03T21:44:25.383Z,4.50
2018-07-03T21:46:53.596Z,5.73
2018-07-03T21:49:22.313Z,6.10
2018-07-03T21:51:51.013Z,5.80
2018-07-03T21:54:19.982Z,6.53
2018-07-03T21:56:49.680Z,4.97
2018-07-03T21:59:17.993Z,5.47
2018-07-03T22:01:47.139Z,5.53
2018-07-03T22:04:15.314Z,5.60
2018-07-03T22:06:43.434Z,4.83
2018-07-03T22:09:12.781Z,5.40
2018-07-03T22:11:47.010Z,4.73
2018-07-03T22:14:15.178Z,5.10
2018-07-03T22:16:43.315Z,5.13
2018-07-03T22:19:11.390Z,5.73
2018-07-03T22:21:39.508Z,5.00
2018-07-03T22:24:07.873Z,4.57
2018-07-03T22:26:35.989Z,4.80
2018-07-03T22:29:04.010Z,4.70
2018-07-03T22:31:32.001Z,4.40
2018-07-03T22:33:59.962Z,4.93
2018-07-03T22:36:28.017Z,4.80
2018-07-03T22:38:56.002Z,5.67
2018-07-03T22:41:24.032Z,4.50
2018-07-03T22:43:52.083Z,5.73
2018-07-03T22:46:20.297Z,4.87
2018-07-03T22:48:48.936Z,5.70
2018-07-03T22:51:17.087Z,6.20
2018-07-03T22:53:45.166Z,5.40
2018-07-03T22:56:13.174Z,6.10
2018-07-03T22:58:41.528Z,6.20
2018-07-03T23:01:09.440Z,5.23
2018-07-03T23:03:37.756Z,5.50
2018-07-03T23:06:05.763Z,6.00
2018-07-03T23:08:33.812Z,5.60
2018-07-03T23:11:02.038Z,5.50
2018-07-03T23:13:29.981Z,5.50
2018-07-03T23:15:57.985Z,5.70
2018-07-03T23:18:25.933Z,5.70
2018-07-03T23:20:54.128Z,5.47
2018-07-03T23:23:22.363Z,6.20
2018-07-03T23:25:50.585Z,5.67
2018-07-03T23:28:18.924Z,6.37
2018-07-03T23:30:47.811Z,5.23
2018-07-03T23:33:16.087Z,5.40
2018-07-03T23:35:44.075Z,6.30
2018-07-03T23:38:12.210Z,5.90
2018-07-03T23:40:40.291Z,5.77
2018-07-03T23:43:08.288Z,5.90
2018-07-03T23:45:41.913Z,5.20
2018-07-03T23:48:15.546Z,4.53
2018-07-03T23:50:49.148Z,5.03
2018-07-03T23:53:22.884Z,5.83
2018-07-03T23:55:57.494Z,5.00
2018-07-03T23:58:31.048Z,5.93
